sensor_id;sensor_type;location;lat;lon;timestamp;P1;durP1;ratioP1;P2;durP2;ratioP2
76953;SDS011;65893;51.698;-0.292;2023-11-21T00:02:10;12.50;;;5.25;;
76953;SDS011;65893;51.698;-0.292;2023-11-21T00:04:38;14.23;;;5.57;;
76953;SDS011;65893;51.698;-0.292;2023-11-21T00:07:04;14.43;;;5.85;;
76953;SDS011;65893;51.698;-0.292;2023-11-21T00:09:31;10.07;;;4.53;;
76953;SDS011;65893;51.698;-0.292;2023-11-21T00:11:57;13.40;;;6.13;;
76953;SDS011;65893;51.698;-0.292;2023-11-21T00:14:24;14.52;;;6.30;;
76953;SDS011;65893;51.698;-0.292;2023-11-21T00:16:50;14.63;;;5.32;;
76953;SDS011;65893;51.698;-0.292;2023-11-21T00:19:16;14.50;;;6.00;;
76953;SDS011;65893;51.698;-0.292;2023-11-21T00:21:45;12.73;;;5.43;;
76953;SDS011;65893;51.698;-0.292;2023-11-21T00:24:12;12.32;;;5.93;;
76953;SDS011;65893;51.698;-0.292;2023-11-21T00:26:40;12.43;;;5.85;;
76953;SDS011;65893;51.698;-0.292;2023-11-21T00:29:08;12.50;;;5.00;;
76953;SDS011;65893;51.698;-0.292;2023-11-21T00:31:37;14.63;;;5.35;;
76953;SDS011;65893;51.698;-0.292;2023-11-21T00:34:03;13.82;;;6.57;;
76953;SDS011;65893;51.698;-0.292;2023-11-21T00:36:32;16.75;;;6.63;;
76953;SDS011;65893;51.698;-0.292;2023-11-21T00:38:58;18.20;;;6.57;;
76953;SDS011;65893;51.698;-0.292;2023-11-21T00:41:25;14.18;;;5.75;;
76953;SDS011;65893;51.698;-0.292;2023-11-21T00:43:53;11.82;;;4.88;;
76953;SDS011;65893;51.698;-0.292;2023-11-21T00:46:21;14.00;;;5.95;;
76953;SDS011;65893;51.698;-0.292;2023-11-21T00:48:52;12.57;;;6.90;;
76953;SDS011;65893;51.698;-0.292;2023-11-21T00:51:21;16.17;;;7.38;;
76953;SDS011;65893;51.698;-0.292;2023-11-21T00:53:47;14.55;;;6.80;;
76953;SDS011;65893;51.698;-0.292;2023-11-21T00:56:16;11.63;;;6.13;;
76953;SDS011;65893;51.698;-0.292;2023-11-21T00:58:42;16.63;;;7.50;;
76953;SDS011;65893;51.698;-0.292;2023-11-21T01:01:11;13.50;;;6.60;;
76953;SDS011;65893;51.698;-0.292;2023-11-21T01:03:37;12.52;;;6.70;;
76953;SDS011;65893;51.698;-0.292;2023-11-21T01:06:03;14.18;;;6.30;;
76953;SDS011;65893;51.698;-0.292;2023-11-21T01:08:33;12.65;;;5.28;;
76953;SDS011;65893;51.698;-0.292;2023-11-21T01:10:59;14.25;;;5.40;;
76953;SDS011;65893;51.698;-0.292;2023-11-21T01:13:25;11.50;;;5.68;;
76953;SDS011;65893;51.698;-0.292;2023-11-21T01:15:54;14.95;;;6.95;;
76953;SDS011;65893;51.698;-0.292;2023-11-21T01:18:20;14.60;;;4.90;;
76953;SDS011;65893;51.698;-0.292;2023-11-21T01:20:47;11.88;;;4.45;;
76953;SDS011;65893;51.698;-0.292;2023-11-21T01:23:13;13.60;;;5.45;;
76953;SDS011;65893;51.698;-0.292;2023-11-21T01:25:40;15.38;;;5.20;;
76953;SDS011;65893;51.698;-0.292;2023-11-21T01:28:06;11.40;;;4.97;;
76953;SDS011;65893;51.698;-0.292;2023-11-21T01:30:32;11.88;;;4.93;;
76953;SDS011;65893;51.698;-0.292;2023-11-21T01:33:04;11.73;;;4.53;;
76953;SDS011;65893;51.698;-0.292;2023-11-21T01:35:30;9.93;;;4.10;;
76953;SDS011;65893;51.698;-0.292;2023-11-21T01:37:56;13.07;;;4.00;;
76953;SDS011;65893;51.698;-0.292;2023-11-21T01:40:22;7.00;;;3.08;;
76953;SDS011;65893;51.698;-0.292;2023-11-21T01:42:49;8.57;;;3.63;;
76953;SDS011;65893;51.698;-0.292;2023-11-21T01:45:15;10.00;;;3.50;;
76953;SDS011;65893;51.698;-0.292;2023-11-21T01:47:42;7.25;;;2.90;;
76953;SDS011;65893;51.698;-0.292;2023-11-21T01:50:10;8.20;;;3.40;;
76953;SDS011;65893;51.698;-0.292;2023-11-21T01:52:39;8.07;;;2.83;;
76953;SDS011;65893;51.698;-0.292;2023-11-21T01:55:07;11.15;;;2.72;;
76953;SDS011;65893;51.698;-0.292;2023-11-21T01:57:33;7.13;;;2.88;;
76953;SDS011;65893;51.698;-0.292;2023-11-21T02:00:00;7.18;;;3.05;;
76953;SDS011;65893;51.698;-0.292;2023-11-21T02:02:43;8.18;;;3.08;;
76953;SDS011;65893;51.698;-0.292;2023-11-21T02:05:10;7.45;;;3.47;;
76953;SDS011;65893;51.698;-0.292;2023-11-21T02:07:38;7.03;;;2.70;;
76953;SDS011;65893;51.698;-0.292;2023-11-21T02:10:06;6.13;;;2.42;;
76953;SDS011;65893;51.698;-0.292;2023-11-21T02:12:32;4.28;;;1.60;;
76953;SDS011;65893;51.698;-0.292;2023-11-21T02:15:00;6.05;;;1.63;;
76953;SDS011;65893;51.698;-0.292;2023-11-21T02:17:28;7.47;;;1.98;;
76953;SDS011;65893;51.698;-0.292;2023-11-21T02:19:54;4.63;;;1.65;;
76953;SDS011;65893;51.698;-0.292;2023-11-21T02:22:21;5.43;;;1.50;;
76953;SDS011;65893;51.698;-0.292;2023-11-21T02:24:51;5.32;;;1.85;;
76953;SDS011;65893;51.698;-0.292;2023-11-21T02:27:17;7.72;;;2.53;;
76953;SDS011;65893;51.698;-0.292;2023-11-21T02:29:47;6.68;;;1.65;;
76953;SDS011;65893;51.698;-0.292;2023-11-21T02:32:13;6.32;;;2.35;;
76953;SDS011;65893;51.698;-0.292;2023-11-21T02:34:39;6.72;;;2.65;;
76953;SDS011;65893;51.698;-0.292;2023-11-21T02:37:06;5.88;;;2.03;;
76953;SDS011;65893;51.698;-0.292;2023-11-21T02:39:32;5.72;;;2.60;;
76953;SDS011;65893;51.698;-0.292;2023-11-21T02:41:59;6.30;;;2.45;;
76953;SDS011;65893;51.698;-0.292;2023-11-21T02:44:25;6.63;;;2.65;;
76953;SDS011;65893;51.698;-0.292;2023-11-21T02:46:51;4.75;;;1.92;;
76953;SDS011;65893;51.698;-0.292;2023-11-21T02:49:17;4.82;;;1.73;;
76953;SDS011;65893;51.698;-0.292;2023-11-21T02:51:43;6.40;;;2.65;;
76953;SDS011;65893;51.698;-0.292;2023-11-21T02:54:09;6.05;;;2.35;;
76953;SDS011;65893;51.698;-0.292;2023-11-21T02:56:36;8.50;;;2.60;;
76953;SDS011;65893;51.698;-0.292;2023-11-21T02:59:02;6.78;;;2.42;;
76953;SDS011;65893;51.698;-0.292;2023-11-21T03:01:28;5.93;;;2.40;;
76953;SDS011;65893;51.698;-0.292;2023-11-21T03:03:54;4.97;;;1.92;;
76953;SDS011;65893;51.698;-0.292;2023-11-21T03:06:21;5.85;;;2.30;;
76953;SDS011;65893;51.698;-0.292;2023-11-21T03:08:48;5.25;;;2.10;;
76953;SDS011;65893;51.698;-0.292;2023-11-21T03:11:14;4.85;;;1.80;;
76953;SDS011;65893;51.698;-0.292;2023-11-21T03:13:40;7.85;;;2.78;;
76953;SDS011;65893;51.698;-0.292;2023-11-21T03:16:10;7.32;;;2.63;;
76953;SDS011;65893;51.698;-0.292;2023-11-21T03:18:37;4.38;;;2.15;;
76953;SDS011;65893;51.698;-0.292;2023-11-21T03:21:04;5.32;;;2.03;;
76953;SDS011;65893;51.698;-0.292;2023-11-21T03:23:30;4.20;;;1.60;;
76953;SDS011;65893;51.698;-0.292;2023-11-21T03:25:57;3.67;;;1.67;;
76953;SDS011;65893;51.698;-0.292;2023-11-21T03:28:24;3.70;;;1.25;;
76953;SDS011;65893;51.698;-0.292;2023-11-21T03:30:52;5.78;;;1.92;;
76953;SDS011;65893;51.698;-0.292;2023-11-21T03:33:18;4.22;;;1.48;;
76953;SDS011;65893;51.698;-0.292;2023-11-21T03:35:44;4.30;;;1.40;;
76953;SDS011;65893;51.698;-0.292;2023-11-21T03:38:10;2.97;;;0.90;;
76953;SDS011;65893;51.698;-0.292;2023-11-21T03:40:37;4.45;;;1.30;;
76953;SDS011;65893;51.698;-0.292;2023-11-21T03:43:04;4.03;;;1.20;;
76953;SDS011;65893;51.698;-0.292;2023-11-21T03:45:31;5.20;;;1.42;;
76953;SDS011;65893;51.698;-0.292;2023-11-21T03:47:57;4.30;;;1.42;;
76953;SDS011;65893;51.698;-0.292;2023-11-21T03:50:24;4.22;;;1.05;;
76953;SDS011;65893;51.698;-0.292;2023-11-21T03:52:50;3.22;;;1.00;;
76953;SDS011;65893;51.698;-0.292;2023-11-21T03:55:16;3.42;;;1.27;;
76953;SDS011;65893;51.698;-0.292;2023-11-21T03:57:42;5.18;;;1.02;;
76953;SDS011;65893;51.698;-0.292;2023-11-21T04:00:08;5.78;;;0.90;;
76953;SDS011;65893;51.698;-0.292;2023-11-21T04:02:35;5.63;;;1.17;;
76953;SDS011;65893;51.698;-0.292;2023-11-21T04:05:01;4.68;;;1.50;;
76953;SDS011;65893;51.698;-0.292;2023-11-21T04:07:28;4.60;;;1.63;;
76953;SDS011;65893;51.698;-0.292;2023-11-21T04:09:54;4.05;;;1.60;;
76953;SDS011;65893;51.698;-0.292;2023-11-21T04:12:20;5.03;;;1.75;;
76953;SDS011;65893;51.698;-0.292;2023-11-21T04:14:46;5.70;;;1.55;;
76953;SDS011;65893;51.698;-0.292;2023-11-21T04:17:12;5.22;;;1.70;;
76953;SDS011;65893;51.698;-0.292;2023-11-21T04:19:38;4.47;;;1.65;;
76953;SDS011;65893;51.698;-0.292;2023-11-21T04:22:04;6.45;;;1.60;;
76953;SDS011;65893;51.698;-0.292;2023-11-21T04:24:30;4.90;;;1.98;;
76953;SDS011;65893;51.698;-0.292;2023-11-21T04:26:56;8.27;;;1.98;;
76953;SDS011;65893;51.698;-0.292;2023-11-21T04:29:22;6.95;;;1.85;;
76953;SDS011;65893;51.698;-0.292;2023-11-21T04:31:48;4.70;;;1.48;;
76953;SDS011;65893;51.698;-0.292;2023-11-21T04:34:14;7.00;;;2.33;;
76953;SDS011;65893;51.698;-0.292;2023-11-21T04:36:41;5.45;;;2.40;;
76953;SDS011;65893;51.698;-0.292;2023-11-21T04:39:07;6.05;;;2.72;;
76953;SDS011;65893;51.698;-0.292;2023-11-21T04:41:33;6.07;;;2.45;;
76953;SDS011;65893;51.698;-0.292;2023-11-21T04:44:01;5.10;;;2.03;;
76953;SDS011;65893;51.698;-0.292;2023-11-21T04:46:28;5.38;;;2.03;;
76953;SDS011;65893;51.698;-0.292;2023-11-21T04:48:55;5.95;;;2.45;;
76953;SDS011;65893;51.698;-0.292;2023-11-21T04:51:21;3.38;;;1.40;;
76953;SDS011;65893;51.698;-0.292;2023-11-21T04:53:47;6.53;;;2.10;;
76953;SDS011;65893;51.698;-0.292;2023-11-21T04:56:13;4.78;;;1.85;;
76953;SDS011;65893;51.698;-0.292;2023-11-21T04:58:40;6.10;;;1.83;;
76953;SDS011;65893;51.698;-0.292;2023-11-21T05:01:09;5.45;;;1.63;;
76953;SDS011;65893;51.698;-0.292;2023-11-21T05:03:37;3.88;;;1.55;;
76953;SDS011;65893;51.698;-0.292;2023-11-21T05:06:04;5.82;;;1.85;;
76953;SDS011;65893;51.698;-0.292;2023-11-21T05:08:30;6.85;;;1.90;;
76953;SDS011;65893;51.698;-0.292;2023-11-21T05:10:56;6.13;;;2.50;;
76953;SDS011;65893;51.698;-0.292;2023-11-21T05:13:23;8.30;;;2.40;;
76953;SDS011;65893;51.698;-0.292;2023-11-21T05:15:53;4.97;;;1.75;;
76953;SDS011;65893;51.698;-0.292;2023-11-21T05:18:20;3.97;;;1.38;;
76953;SDS011;65893;51.698;-0.292;2023-11-21T05:20:46;3.47;;;1.20;;
76953;SDS011;65893;51.698;-0.292;2023-11-21T05:23:12;4.07;;;1.65;;
76953;SDS011;65893;51.698;-0.292;2023-11-21T05:25:38;3.90;;;1.42;;
76953;SDS011;65893;51.698;-0.292;2023-11-21T05:28:06;6.50;;;2.10;;
76953;SDS011;65893;51.698;-0.292;2023-11-21T05:30:32;4.60;;;1.70;;
76953;SDS011;65893;51.698;-0.292;2023-11-21T05:33:01;6.90;;;1.90;;
76953;SDS011;65893;51.698;-0.292;2023-11-21T05:35:27;4.93;;;1.35;;
76953;SDS011;65893;51.698;-0.292;2023-11-21T05:37:53;3.80;;;1.63;;
76953;SDS011;65893;51.698;-0.292;2023-11-21T05:40:19;6.10;;;1.52;;
76953;SDS011;65893;51.698;-0.292;2023-11-21T05:42:47;3.15;;;1.38;;
76953;SDS011;65893;51.698;-0.292;2023-11-21T05:45:13;5.53;;;1.75;;
76953;SDS011;65893;51.698;-0.292;2023-11-21T05:47:41;3.30;;;1.30;;
76953;SDS011;65893;51.698;-0.292;2023-11-21T05:50:08;3.42;;;1.30;;
76953;SDS011;65893;51.698;-0.292;2023-11-21T05:52:39;5.75;;;1.55;;
76953;SDS011;65893;51.698;-0.292;2023-11-21T05:55:06;3.92;;;1.25;;
76953;SDS011;65893;51.698;-0.292;2023-11-21T05:57:35;4.13;;;1.38;;
76953;SDS011;65893;51.698;-0.292;2023-11-21T06:00:05;4.45;;;1.77;;
76953;SDS011;65893;51.698;-0.292;2023-11-21T06:02:36;3.88;;;1.20;;
76953;SDS011;65893;51.698;-0.292;2023-11-21T06:05:08;4.28;;;1.58;;
76953;SDS011;65893;51.698;-0.292;2023-11-21T06:07:34;5.50;;;1.65;;
76953;SDS011;65893;51.698;-0.292;2023-11-21T06:10:03;4.43;;;1.65;;
76953;SDS011;65893;51.698;-0.292;2023-11-21T06:12:32;5.53;;;1.60;;
76953;SDS011;65893;51.698;-0.292;2023-11-21T06:15:01;5.03;;;1.55;;
76953;SDS011;65893;51.698;-0.292;2023-11-21T06:17:30;3.65;;;1.48;;
76953;SDS011;65893;51.698;-0.292;2023-11-21T06:19:56;5.07;;;1.30;;
76953;SDS011;65893;51.698;-0.292;2023-11-21T06:22:22;6.38;;;1.33;;
76953;SDS011;65893;51.698;-0.292;2023-11-21T06:24:48;4.72;;;1.88;;
76953;SDS011;65893;51.698;-0.292;2023-11-21T06:27:15;4.55;;;1.25;;
76953;SDS011;65893;51.698;-0.292;2023-11-21T06:29:41;2.75;;;1.23;;
76953;SDS011;65893;51.698;-0.292;2023-11-21T06:32:08;5.07;;;1.42;;
76953;SDS011;65893;51.698;-0.292;2023-11-21T06:34:34;4.03;;;1.70;;
76953;SDS011;65893;51.698;-0.292;2023-11-21T06:37:00;4.75;;;1.58;;
76953;SDS011;65893;51.698;-0.292;2023-11-21T06:39:26;5.32;;;2.00;;
76953;SDS011;65893;51.698;-0.292;2023-11-21T06:41:52;4.55;;;1.65;;
76953;SDS011;65893;51.698;-0.292;2023-11-21T06:44:19;3.55;;;1.20;;
76953;SDS011;65893;51.698;-0.292;2023-11-21T06:46:45;5.18;;;1.60;;
76953;SDS011;65893;51.698;-0.292;2023-11-21T06:49:11;6.95;;;1.80;;
76953;SDS011;65893;51.698;-0.292;2023-11-21T06:51:37;5.18;;;2.10;;
76953;SDS011;65893;51.698;-0.292;2023-11-21T06:54:04;3.05;;;1.35;;
76953;SDS011;65893;51.698;-0.292;2023-11-21T06:56:30;3.42;;;1.20;;
76953;SDS011;65893;51.698;-0.292;2023-11-21T06:58:56;4.90;;;1.30;;
76953;SDS011;65893;51.698;-0.292;2023-11-21T07:01:22;6.93;;;1.30;;
76953;SDS011;65893;51.698;-0.292;2023-11-21T07:03:48;5.63;;;1.65;;
76953;SDS011;65893;51.698;-0.292;2023-11-21T07:06:15;5.68;;;1.60;;
76953;SDS011;65893;51.698;-0.292;2023-11-21T07:08:41;5.40;;;1.42;;
76953;SDS011;65893;51.698;-0.292;2023-11-21T07:11:09;3.58;;;1.30;;
76953;SDS011;65893;51.698;-0.292;2023-11-21T07:13:35;5.10;;;1.40;;
76953;SDS011;65893;51.698;-0.292;2023-11-21T07:16:02;7.40;;;1.42;;
76953;SDS011;65893;51.698;-0.292;2023-11-21T07:18:29;7.47;;;2.05;;
76953;SDS011;65893;51.698;-0.292;2023-11-21T07:20:55;4.50;;;1.27;;
76953;SDS011;65893;51.698;-0.292;2023-11-21T07:23:23;4.72;;;1.33;;
76953;SDS011;65893;51.698;-0.292;2023-11-21T07:25:51;6.65;;;1.48;;
76953;SDS011;65893;51.698;-0.292;2023-11-21T07:28:17;4.60;;;1.13;;
76953;SDS011;65893;51.698;-0.292;2023-11-21T07:30:44;4.90;;;1.60;;
76953;SDS011;65893;51.698;-0.292;2023-11-21T07:33:10;3.83;;;0.93;;
76953;SDS011;65893;51.698;-0.292;2023-11-21T07:35:37;6.35;;;1.23;;
76953;SDS011;65893;51.698;-0.292;2023-11-21T07:38:04;4.82;;;1.17;;
76953;SDS011;65893;51.698;-0.292;2023-11-21T07:40:30;4.70;;;1.63;;
76953;SDS011;65893;51.698;-0.292;2023-11-21T07:42:57;4.70;;;1.70;;
76953;SDS011;65893;51.698;-0.292;2023-11-21T07:45:24;5.00;;;1.40;;
76953;SDS011;65893;51.698;-0.292;2023-11-21T07:47:53;8.85;;;1.40;;
76953;SDS011;65893;51.698;-0.292;2023-11-21T07:50:21;4.90;;;1.42;;
76953;SDS011;65893;51.698;-0.292;2023-11-21T07:52:48;7.00;;;1.60;;
76953;SDS011;65893;51.698;-0.292;2023-11-21T07:55:14;3.72;;;1.20;;
76953;SDS011;65893;51.698;-0.292;2023-11-21T07:57:41;5.45;;;1.23;;
76953;SDS011;65893;51.698;-0.292;2023-11-21T08:00:07;4.78;;;1.00;;
76953;SDS011;65893;51.698;-0.292;2023-11-21T08:02:34;4.60;;;1.30;;
76953;SDS011;65893;51.698;-0.292;2023-11-21T08:05:00;2.53;;;0.90;;
76953;SDS011;65893;51.698;-0.292;2023-11-21T08:07:26;4.07;;;1.23;;
76953;SDS011;65893;51.698;-0.292;2023-11-21T08:09:54;3.25;;;0.90;;
76953;SDS011;65893;51.698;-0.292;2023-11-21T08:12:21;3.97;;;0.90;;
76953;SDS011;65893;51.698;-0.292;2023-11-21T08:14:48;3.15;;;1.08;;
76953;SDS011;65893;51.698;-0.292;2023-11-21T08:17:14;3.22;;;1.08;;
76953;SDS011;65893;51.698;-0.292;2023-11-21T08:19:40;6.82;;;1.25;;
76953;SDS011;65893;51.698;-0.292;2023-11-21T08:22:07;3.88;;;0.73;;
76953;SDS011;65893;51.698;-0.292;2023-11-21T08:24:34;3.10;;;1.10;;
76953;SDS011;65893;51.698;-0.292;2023-11-21T08:27:00;10.32;;;1.10;;
76953;SDS011;65893;51.698;-0.292;2023-11-21T08:29:26;3.67;;;1.30;;
76953;SDS011;65893;51.698;-0.292;2023-11-21T08:31:52;6.32;;;1.08;;
76953;SDS011;65893;51.698;-0.292;2023-11-21T08:34:18;4.35;;;1.10;;
76953;SDS011;65893;51.698;-0.292;2023-11-21T08:36:44;3.45;;;1.15;;
76953;SDS011;65893;51.698;-0.292;2023-11-21T08:39:11;2.55;;;0.90;;
76953;SDS011;65893;51.698;-0.292;2023-11-21T08:41:38;4.82;;;1.48;;
76953;SDS011;65893;51.698;-0.292;2023-11-21T08:44:04;5.50;;;1.08;;
76953;SDS011;65893;51.698;-0.292;2023-11-21T08:46:33;3.17;;;1.30;;
76953;SDS011;65893;51.698;-0.292;2023-11-21T08:49:03;6.25;;;1.10;;
76953;SDS011;65893;51.698;-0.292;2023-11-21T08:51:29;4.30;;;1.02;;
76953;SDS011;65893;51.698;-0.292;2023-11-21T08:53:55;1.92;;;1.00;;
76953;SDS011;65893;51.698;-0.292;2023-11-21T08:56:24;6.47;;;1.67;;
76953;SDS011;65893;51.698;-0.292;2023-11-21T08:58:50;4.10;;;1.23;;
76953;SDS011;65893;51.698;-0.292;2023-11-21T09:01:17;3.28;;;1.30;;
76953;SDS011;65893;51.698;-0.292;2023-11-21T09:03:44;3.00;;;1.10;;
76953;SDS011;65893;51.698;-0.292;2023-11-21T09:06:11;4.60;;;1.23;;
76953;SDS011;65893;51.698;-0.292;2023-11-21T09:08:37;3.05;;;1.20;;
76953;SDS011;65893;51.698;-0.292;2023-11-21T09:11:04;5.57;;;1.35;;
76953;SDS011;65893;51.698;-0.292;2023-11-21T09:13:30;6.35;;;1.33;;
76953;SDS011;65893;51.698;-0.292;2023-11-21T09:15:57;4.55;;;1.52;;
76953;SDS011;65893;51.698;-0.292;2023-11-21T09:18:23;3.35;;;1.45;;
76953;SDS011;65893;51.698;-0.292;2023-11-21T09:20:49;4.95;;;1.67;;
76953;SDS011;65893;51.698;-0.292;2023-11-21T09:23:15;6.50;;;1.30;;
76953;SDS011;65893;51.698;-0.292;2023-11-21T09:25:41;4.88;;;1.70;;
76953;SDS011;65893;51.698;-0.292;2023-11-21T09:28:11;4.55;;;1.40;;
76953;SDS011;65893;51.698;-0.292;2023-11-21T09:30:37;4.85;;;1.42;;
76953;SDS011;65893;51.698;-0.292;2023-11-21T09:33:03;5.68;;;1.90;;
76953;SDS011;65893;51.698;-0.292;2023-11-21T09:35:37;3.83;;;1.73;;
76953;SDS011;65893;51.698;-0.292;2023-11-21T09:38:03;5.03;;;1.60;;
76953;SDS011;65893;51.698;-0.292;2023-11-21T09:40:36;3.40;;;1.30;;
76953;SDS011;65893;51.698;-0.292;2023-11-21T09:43:05;6.22;;;2.10;;
76953;SDS011;65893;51.698;-0.292;2023-11-21T09:48:06;6.25;;;1.90;;
76953;SDS011;65893;51.698;-0.292;2023-11-21T09:50:36;7.03;;;1.88;;
76953;SDS011;65893;51.698;-0.292;2023-11-21T09:55:34;6.35;;;1.45;;
76953;SDS011;65893;51.698;-0.292;2023-11-21T09:58:02;4.20;;;1.48;;
76953;SDS011;65893;51.698;-0.292;2023-11-21T10:00:31;5.03;;;1.23;;
76953;SDS011;65893;51.698;-0.292;2023-11-21T10:02:59;2.20;;;0.82;;
76953;SDS011;65893;51.698;-0.292;2023-11-21T10:05:27;3.72;;;1.17;;
76953;SDS011;65893;51.698;-0.292;2023-11-21T10:07:55;3.72;;;1.15;;
76953;SDS011;65893;51.698;-0.292;2023-11-21T10:10:22;3.17;;;0.90;;
76953;SDS011;65893;51.698;-0.292;2023-11-21T10:12:50;4.93;;;1.50;;
76953;SDS011;65893;51.698;-0.292;2023-11-21T10:15:18;2.70;;;0.95;;
76953;SDS011;65893;51.698;-0.292;2023-11-21T10:17:46;3.42;;;1.00;;
76953;SDS011;65893;51.698;-0.292;2023-11-21T10:20:14;4.15;;;1.10;;
76953;SDS011;65893;51.698;-0.292;2023-11-21T10:22:41;9.15;;;1.05;;
76953;SDS011;65893;51.698;-0.292;2023-11-21T10:25:08;5.28;;;1.08;;
76953;SDS011;65893;51.698;-0.292;2023-11-21T10:27:34;6.25;;;1.20;;
76953;SDS011;65893;51.698;-0.292;2023-11-21T10:30:01;34.65;;;3.00;;
76953;SDS011;65893;51.698;-0.292;2023-11-21T10:32:29;3.47;;;0.95;;
76953;SDS011;65893;51.698;-0.292;2023-11-21T10:34:59;2.42;;;0.80;;
76953;SDS011;65893;51.698;-0.292;2023-11-21T10:37:27;2.90;;;0.80;;
76953;SDS011;65893;51.698;-0.292;2023-11-21T10:40:02;2.42;;;0.98;;
76953;SDS011;65893;51.698;-0.292;2023-11-21T10:42:31;2.22;;;0.75;;
76953;SDS011;65893;51.698;-0.292;2023-11-21T10:44:58;2.88;;;1.15;;
76953;SDS011;65893;51.698;-0.292;2023-11-21T10:47:25;2.50;;;1.05;;
76953;SDS011;65893;51.698;-0.292;2023-11-21T10:49:51;5.05;;;0.90;;
76953;SDS011;65893;51.698;-0.292;2023-11-21T10:52:21;3.90;;;1.13;;
76953;SDS011;65893;51.698;-0.292;2023-11-21T10:54:47;12.98;;;1.75;;
76953;SDS011;65893;51.698;-0.292;2023-11-21T10:57:17;3.63;;;1.15;;
76953;SDS011;65893;51.698;-0.292;2023-11-21T10:59:46;8.18;;;1.38;;
76953;SDS011;65893;51.698;-0.292;2023-11-21T11:02:21;5.82;;;1.38;;
76953;SDS011;65893;51.698;-0.292;2023-11-21T11:04:51;6.35;;;1.50;;
76953;SDS011;65893;51.698;-0.292;2023-11-21T11:07:25;3.80;;;1.08;;
76953;SDS011;65893;51.698;-0.292;2023-11-21T11:09:55;4.70;;;1.00;;
76953;SDS011;65893;51.698;-0.292;2023-11-21T11:12:21;3.90;;;1.00;;
76953;SDS011;65893;51.698;-0.292;2023-11-21T11:14:48;6.55;;;1.35;;
76953;SDS011;65893;51.698;-0.292;2023-11-21T11:17:14;1.83;;;0.60;;
76953;SDS011;65893;51.698;-0.292;2023-11-21T11:19:42;9.15;;;1.15;;
76953;SDS011;65893;51.698;-0.292;2023-11-21T11:28:02;1.65;;;0.63;;
76953;SDS011;65893;51.698;-0.292;2023-11-21T11:30:36;1.75;;;0.63;;
76953;SDS011;65893;51.698;-0.292;2023-11-21T11:38:07;1.63;;;0.75;;
76953;SDS011;65893;51.698;-0.292;2023-11-21T11:40:40;1.65;;;0.52;;
76953;SDS011;65893;51.698;-0.292;2023-11-21T11:43:07;5.90;;;1.17;;
76953;SDS011;65893;51.698;-0.292;2023-11-21T11:45:33;2.42;;;0.95;;
76953;SDS011;65893;51.698;-0.292;2023-11-21T11:48:06;3.42;;;1.08;;
76953;SDS011;65893;51.698;-0.292;2023-11-21T11:50:33;3.95;;;1.17;;
76953;SDS011;65893;51.698;-0.292;2023-11-21T11:53:12;3.58;;;1.20;;
76953;SDS011;65893;51.698;-0.292;2023-11-21T11:55:41;2.55;;;1.00;;
76953;SDS011;65893;51.698;-0.292;2023-11-21T11:58:12;6.65;;;1.75;;
76953;SDS011;65893;51.698;-0.292;2023-11-21T12:00:39;3.97;;;1.17;;
76953;SDS011;65893;51.698;-0.292;2023-11-21T12:03:06;9.50;;;1.88;;
76953;SDS011;65893;51.698;-0.292;2023-11-21T12:05:33;3.78;;;1.35;;
76953;SDS011;65893;51.698;-0.292;2023-11-21T12:08:07;4.63;;;1.50;;
76953;SDS011;65893;51.698;-0.292;2023-11-21T12:10:36;7.68;;;1.90;;
76953;SDS011;65893;51.698;-0.292;2023-11-21T12:13:08;12.38;;;2.33;;
76953;SDS011;65893;51.698;-0.292;2023-11-21T12:15:36;4.30;;;1.52;;
76953;SDS011;65893;51.698;-0.292;2023-11-21T12:18:03;3.88;;;1.00;;
76953;SDS011;65893;51.698;-0.292;2023-11-21T12:20:30;1.55;;;0.77;;
76953;SDS011;65893;51.698;-0.292;2023-11-21T12:22:57;2.25;;;0.63;;
76953;SDS011;65893;51.698;-0.292;2023-11-21T12:25:28;3.65;;;0.50;;
76953;SDS011;65893;51.698;-0.292;2023-11-21T12:27:56;3.03;;;0.57;;
76953;SDS011;65893;51.698;-0.292;2023-11-21T12:30:26;2.45;;;0.52;;
76953;SDS011;65893;51.698;-0.292;2023-11-21T12:33:06;0.65;;;0.20;;
76953;SDS011;65893;51.698;-0.292;2023-11-21T12:35:35;1.90;;;0.40;;
76953;SDS011;65893;51.698;-0.292;2023-11-21T12:38:02;3.63;;;0.50;;
76953;SDS011;65893;51.698;-0.292;2023-11-21T12:40:28;1.17;;;0.52;;
76953;SDS011;65893;51.698;-0.292;2023-11-21T12:43:00;1.08;;;0.30;;
76953;SDS011;65893;51.698;-0.292;2023-11-21T12:45:29;1.60;;;0.25;;
76953;SDS011;65893;51.698;-0.292;2023-11-21T12:50:28;0.75;;;0.30;;
76953;SDS011;65893;51.698;-0.292;2023-11-21T12:53:01;0.93;;;0.40;;
76953;SDS011;65893;51.698;-0.292;2023-11-21T12:55:30;2.67;;;0.38;;
76953;SDS011;65893;51.698;-0.292;2023-11-21T12:57:56;4.03;;;0.60;;
76953;SDS011;65893;51.698;-0.292;2023-11-21T13:00:32;5.25;;;0.65;;
76953;SDS011;65893;51.698;-0.292;2023-11-21T13:03:06;3.85;;;0.60;;
76953;SDS011;65893;51.698;-0.292;2023-11-21T13:05:36;2.75;;;0.50;;
76953;SDS011;65893;51.698;-0.292;2023-11-21T13:08:05;3.42;;;0.68;;
76953;SDS011;65893;51.698;-0.292;2023-11-21T13:10:38;0.95;;;0.43;;
76953;SDS011;65893;51.698;-0.292;2023-11-21T13:13:05;1.20;;;0.38;;
76953;SDS011;65893;51.698;-0.292;2023-11-21T13:15:38;1.35;;;0.70;;
76953;SDS011;65893;51.698;-0.292;2023-11-21T13:18:06;2.20;;;0.40;;
76953;SDS011;65893;51.698;-0.292;2023-11-21T13:20:39;5.38;;;0.80;;
76953;SDS011;65893;51.698;-0.292;2023-11-21T13:23:08;3.33;;;0.65;;
76953;SDS011;65893;51.698;-0.292;2023-11-21T13:25:37;3.15;;;0.70;;
76953;SDS011;65893;51.698;-0.292;2023-11-21T13:28:05;2.83;;;0.90;;
76953;SDS011;65893;51.698;-0.292;2023-11-21T13:30:31;4.00;;;0.60;;
76953;SDS011;65893;51.698;-0.292;2023-11-21T13:33:10;6.53;;;1.38;;
76953;SDS011;65893;51.698;-0.292;2023-11-21T13:35:49;5.18;;;1.10;;
76953;SDS011;65893;51.698;-0.292;2023-11-21T13:41:01;5.53;;;1.35;;
76953;SDS011;65893;51.698;-0.292;2023-11-21T13:43:34;6.63;;;1.65;;
76953;SDS011;65893;51.698;-0.292;2023-11-21T13:46:02;6.32;;;1.55;;
76953;SDS011;65893;51.698;-0.292;2023-11-21T13:48:38;8.70;;;1.20;;
76953;SDS011;65893;51.698;-0.292;2023-11-21T13:51:17;9.02;;;1.40;;
76953;SDS011;65893;51.698;-0.292;2023-11-21T13:53:44;7.90;;;1.50;;
76953;SDS011;65893;51.698;-0.292;2023-11-21T13:56:12;6.18;;;1.08;;
76953;SDS011;65893;51.698;-0.292;2023-11-21T13:58:43;5.32;;;1.50;;
76953;SDS011;65893;51.698;-0.292;2023-11-21T14:01:20;3.05;;;1.25;;
76953;SDS011;65893;51.698;-0.292;2023-11-21T14:03:55;6.00;;;1.70;;
76953;SDS011;65893;51.698;-0.292;2023-11-21T14:06:46;8.93;;;1.65;;
76953;SDS011;65893;51.698;-0.292;2023-11-21T14:09:15;7.95;;;1.38;;
76953;SDS011;65893;51.698;-0.292;2023-11-21T14:11:54;7.47;;;1.40;;
76953;SDS011;65893;51.698;-0.292;2023-11-21T14:14:27;8.07;;;1.42;;
76953;SDS011;65893;51.698;-0.292;2023-11-21T14:16:53;9.18;;;1.10;;
76953;SDS011;65893;51.698;-0.292;2023-11-21T14:19:24;8.85;;;1.90;;
76953;SDS011;65893;51.698;-0.292;2023-11-21T14:21:57;2.90;;;0.70;;
76953;SDS011;65893;51.698;-0.292;2023-11-21T14:24:23;5.70;;;1.10;;
76953;SDS011;65893;51.698;-0.292;2023-11-21T14:26:50;4.72;;;1.65;;
76953;SDS011;65893;51.698;-0.292;2023-11-21T14:29:18;6.53;;;1.95;;
76953;SDS011;65893;51.698;-0.292;2023-11-21T14:31:45;9.88;;;1.67;;
76953;SDS011;65893;51.698;-0.292;2023-11-21T14:34:11;19.05;;;2.33;;
76953;SDS011;65893;51.698;-0.292;2023-11-21T14:36:43;8.40;;;2.60;;
76953;SDS011;65893;51.698;-0.292;2023-11-21T14:39:10;5.50;;;1.45;;
76953;SDS011;65893;51.698;-0.292;2023-11-21T14:41:48;5.05;;;1.40;;
76953;SDS011;65893;51.698;-0.292;2023-11-21T14:44:14;8.55;;;2.20;;
76953;SDS011;65893;51.698;-0.292;2023-11-21T14:46:41;7.10;;;1.27;;
76953;SDS011;65893;51.698;-0.292;2023-11-21T14:49:12;3.95;;;0.93;;
76953;SDS011;65893;51.698;-0.292;2023-11-21T14:51:53;8.88;;;1.50;;
76953;SDS011;65893;51.698;-0.292;2023-11-21T14:54:32;5.72;;;1.20;;
76953;SDS011;65893;51.698;-0.292;2023-11-21T14:57:12;7.25;;;1.38;;
76953;SDS011;65893;51.698;-0.292;2023-11-21T14:59:47;5.80;;;1.30;;